Time;durP1;ratioP1;P1;durP2;ratioP2;P2;SDS_P1;SDS_P2;PMS_P1;PMS_P2;Temp;Humidity;BMP_temperature;BMP_pressure;BME280_temperature;BME280_humidity;BME280_pressure;Samples;Min_cycle;Max_cycle;Signal;HPM_P1;HPM_P2
2024/01/31 00:01:37;;;;;;;21.60;9.17;;;7.40;99.90;;;;;;5050773;28;20039;-53
2024/01/31 00:04:04;;;;;;;20.57;8.30;;;7.30;99.90;;;;;;5050796;28;20033;-54
2024/01/31 00:06:30;;;;;;;23.43;9.27;;;7.30;99.90;;;;;;5051742;28;20075;-54
2024/01/31 00:08:57;;;;;;;19.57;8.57;;;7.30;99.90;;;;;;5051833;28;20566;-55
2024/01/31 00:11:25;;;;;;;19.90;7.90;;;7.30;99.90;;;;;;5050410;28;20493;-54
2024/01/31 00:13:51;;;;;;;21.08;8.05;;;7.30;99.90;;;;;;5051860;28;20092;-54
2024/01/31 00:16:17;;;;;;;21.70;8.20;;;7.30;99.90;;;;;;5051775;28;20033;-50
2024/01/31 00:18:43;;;;;;;21.00;8.50;;;7.20;99.90;;;;;;5052423;28;20032;-53
2024/01/31 00:21:09;;;;;;;19.53;8.50;;;7.30;99.90;;;;;;5051934;28;20021;-55
2024/01/31 00:23:34;;;;;;;20.43;8.63;;;7.30;99.90;;;;;;5051997;28;20104;-55
2024/01/31 00:26:00;;;;;;;21.50;8.10;;;7.30;99.90;;;;;;5051631;28;20037;-54
2024/01/31 00:28:26;;;;;;;19.57;8.00;;;7.30;99.90;;;;;;5051856;28;20134;-54
2024/01/31 00:30:51;;;;;;;19.20;7.63;;;7.30;99.90;;;;;;5051783;28;20551;-54
2024/01/31 00:33:17;;;;;;;27.40;8.30;;;7.30;99.90;;;;;;5051653;28;20083;-54
2024/01/31 00:35:42;;;;;;;19.63;8.13;;;7.20;99.90;;;;;;5051795;28;20021;-55
2024/01/31 00:38:08;;;;;;;19.30;7.60;;;7.20;99.90;;;;;;5051476;28;20524;-50
2024/01/31 00:40:34;;;;;;;20.90;8.33;;;7.20;99.90;;;;;;5050366;28;20549;-51
2024/01/31 00:42:59;;;;;;;18.13;7.33;;;7.10;99.90;;;;;;5051596;28;20444;-50
2024/01/31 00:45:25;;;;;;;15.03;6.53;;;7.20;99.90;;;;;;5051500;28;20032;-51
2024/01/31 00:47:51;;;;;;;17.60;6.73;;;7.20;99.90;;;;;;5051362;28;20051;-50
2024/01/31 00:50:16;;;;;;;15.37;5.90;;;7.20;99.90;;;;;;5051611;28;20025;-52
2024/01/31 00:52:42;;;;;;;16.10;5.57;;;7.20;99.90;;;;;;5050179;28;20465;-49
2024/01/31 00:55:08;;;;;;;17.43;6.47;;;7.20;99.90;;;;;;5051633;28;20108;-50
2024/01/31 00:57:34;;;;;;;15.97;5.83;;;7.20;99.90;;;;;;5051363;28;20448;-49
2024/01/31 01:00:04;;;;;;;14.10;5.70;;;7.20;99.90;;;;;;5051886;28;20421;-53
2024/01/31 01:02:30;;;;;;;15.30;6.23;;;7.20;99.90;;;;;;5051606;28;20039;-55
2024/01/31 01:04:55;;;;;;;16.87;5.90;;;7.20;99.90;;;;;;5050113;28;20382;-54
2024/01/31 01:07:21;;;;;;;13.20;6.00;;;7.20;99.90;;;;;;5051396;28;20389;-53
2024/01/31 01:09:46;;;;;;;15.53;6.37;;;7.30;99.90;;;;;;5054644;28;20075;-54
2024/01/31 01:12:12;;;;;;;19.43;5.60;;;7.30;99.90;;;;;;5055046;28;20036;-54
2024/01/31 01:14:38;;;;;;;16.20;5.90;;;7.30;99.90;;;;;;5054951;28;20032;-55
2024/01/31 01:17:04;;;;;;;14.53;5.13;;;7.30;99.90;;;;;;5055030;28;20045;-50
2024/01/31 01:19:29;;;;;;;12.10;5.23;;;7.20;99.90;;;;;;5055236;28;20033;-51
2024/01/31 01:21:56;;;;;;;14.83;4.87;;;7.20;99.90;;;;;;5054928;28;20036;-53
2024/01/31 01:24:22;;;;;;;16.00;5.73;;;7.20;99.90;;;;;;5054813;28;20120;-51
2024/01/31 01:26:48;;;;;;;20.17;6.87;;;7.20;99.90;;;;;;5054686;28;20127;-55
2024/01/31 01:29:13;;;;;;;13.47;5.43;;;7.10;99.90;;;;;;5054598;28;20033;-54
2024/01/31 01:31:39;;;;;;;14.30;5.43;;;7.10;99.90;;;;;;5054735;28;20033;-53
2024/01/31 01:34:04;;;;;;;18.33;5.20;;;7.20;99.90;;;;;;5054639;28;20385;-53
2024/01/31 01:36:30;;;;;;;11.57;4.43;;;7.10;99.90;;;;;;5054478;28;20048;-51
2024/01/31 01:38:55;;;;;;;13.10;4.50;;;7.10;99.90;;;;;;5054895;28;20436;-54
2024/01/31 01:41:21;;;;;;;11.13;3.87;;;7.10;99.90;;;;;;5054587;28;20025;-53
2024/01/31 01:43:47;;;;;;;12.07;3.53;;;7.10;99.90;;;;;;5054790;28;20469;-54
2024/01/31 01:46:17;;;;;;;12.40;4.10;;;7.00;99.90;;;;;;5054614;28;20029;-55
2024/01/31 01:48:43;;;;;;;9.23;4.17;;;7.00;99.90;;;;;;5055187;28;20041;-52
2024/01/31 01:51:10;;;;;;;10.10;3.30;;;7.00;99.90;;;;;;5056060;28;20033;-51
2024/01/31 01:53:37;;;;;;;11.17;3.63;;;7.00;99.90;;;;;;5055847;28;20037;-51
2024/01/31 01:56:06;;;;;;;8.63;3.27;;;6.90;99.90;;;;;;5055162;28;20025;-51
2024/01/31 01:58:32;;;;;;;9.63;3.53;;;6.90;99.90;;;;;;5055796;28;20027;-50
2024/01/31 02:01:01;;;;;;;7.63;3.47;;;6.90;99.90;;;;;;5055709;28;20089;-51
2024/01/31 02:03:30;;;;;;;9.75;3.08;;;6.90;99.90;;;;;;5055664;28;20045;-52
2024/01/31 02:06:00;;;;;;;9.07;3.08;;;6.90;99.90;;;;;;5054075;28;20048;-55
2024/01/31 02:08:29;;;;;;;8.20;2.93;;;6.90;99.90;;;;;;5054189;28;20035;-54
2024/01/31 02:10:55;;;;;;;;;;;6.80;99.90;;;;;;5053255;28;20124;-55
2024/01/31 02:13:21;;;;;;;6.57;2.57;;;6.80;99.90;;;;;;5053778;28;20008;-54
2024/01/31 02:15:54;;;;;;;9.93;3.13;;;6.80;99.90;;;;;;5052636;28;20095;-51
2024/01/31 02:18:27;;;;;;;9.70;2.93;;;6.80;99.90;;;;;;5053396;28;20068;-54
2024/01/31 02:20:54;;;;;;;9.57;2.60;;;6.80;99.90;;;;;;5052549;28;20497;-51
2024/01/31 02:23:20;;;;;;;8.60;2.77;;;6.80;99.90;;;;;;5053657;28;20025;-55
2024/01/31 02:25:46;;;;;;;7.87;3.00;;;6.80;99.90;;;;;;5053685;28;20045;-55
2024/01/31 02:28:12;;;;;;;9.33;3.43;;;6.80;99.90;;;;;;5053425;28;20109;-54
2024/01/31 02:30:37;;;;;;;13.30;3.17;;;6.80;99.90;;;;;;5053442;28;20584;-52
2024/01/31 02:33:03;;;;;;;9.03;2.63;;;6.80;99.90;;;;;;5053389;28;20659;-54
2024/01/31 02:35:32;;;;;;;7.60;3.17;;;6.80;99.90;;;;;;5053561;28;20187;-54
2024/01/31 02:37:57;;;;;;;7.47;2.65;;;6.70;99.90;;;;;;5053400;28;20366;-54
2024/01/31 02:40:23;;;;;;;8.30;2.87;;;6.80;99.90;;;;;;5053372;28;20033;-54
2024/01/31 02:42:49;;;;;;;7.03;2.10;;;6.80;99.90;;;;;;5053247;28;20075;-54
2024/01/31 02:45:15;;;;;;;7.33;2.80;;;6.70;99.90;;;;;;5053428;28;20040;-54
2024/01/31 02:47:41;;;;;;;7.30;2.77;;;6.70;99.90;;;;;;5053139;28;20044;-54
2024/01/31 02:50:06;;;;;;;9.30;2.60;;;6.60;99.90;;;;;;5053215;28;20044;-54
2024/01/31 02:52:32;;;;;;;7.10;2.40;;;6.60;99.90;;;;;;5053201;28;20087;-54
2024/01/31 02:54:58;;;;;;;6.87;2.50;;;6.60;99.90;;;;;;5053168;28;20108;-54
2024/01/31 02:57:24;;;;;;;6.67;2.50;;;6.60;99.90;;;;;;5053009;28;20035;-54
2024/01/31 02:59:50;;;;;;;10.37;3.47;;;6.60;99.90;;;;;;5053060;28;20056;-54
2024/01/31 03:02:17;;;;;;;6.30;2.77;;;6.60;99.90;;;;;;5053026;28;20525;-55
2024/01/31 03:04:43;;;;;;;7.10;2.80;;;6.60;99.90;;;;;;5051698;28;20037;-54
2024/01/31 03:07:10;;;;;;;8.63;2.90;;;6.60;99.90;;;;;;5052837;28;20106;-54
2024/01/31 03:09:39;;;;;;;9.47;2.87;;;6.60;99.90;;;;;;5052917;28;20040;-52
2024/01/31 03:12:05;;;;;;;6.72;2.75;;;6.60;99.90;;;;;;5053082;28;20124;-51
2024/01/31 03:14:32;;;;;;;9.33;2.70;;;6.60;99.90;;;;;;5052885;28;20021;-54
2024/01/31 03:16:57;;;;;;;7.30;2.43;;;6.60;99.90;;;;;;5052851;28;20490;-54
2024/01/31 03:19:24;;;;;;;8.03;2.77;;;6.60;99.90;;;;;;5052702;28;20060;-53
2024/01/31 03:21:50;;;;;;;5.97;2.47;;;6.60;99.90;;;;;;5051555;28;20441;-54
2024/01/31 03:24:16;;;;;;;7.07;1.90;;;6.60;99.90;;;;;;5052482;28;20120;-54
2024/01/31 03:26:41;;;;;;;5.90;2.03;;;6.60;99.90;;;;;;5051075;28;20040;-53
2024/01/31 03:29:08;;;;;;;5.00;2.17;;;6.60;99.90;;;;;;5052452;28;20481;-53
2024/01/31 03:31:33;;;;;;;8.37;2.10;;;6.60;99.90;;;;;;5051885;28;20033;-49
2024/01/31 03:33:59;;;;;;;9.60;2.10;;;6.60;99.90;;;;;;5050970;28;20039;-56
2024/01/31 03:36:26;;;;;;;4.53;1.63;;;6.50;99.90;;;;;;5052180;28;20044;-54
2024/01/31 03:38:54;;;;;;;6.30;2.30;;;6.50;99.90;;;;;;5052368;28;20037;-51
2024/01/31 03:41:20;;;;;;;5.33;1.83;;;6.50;99.90;;;;;;5052155;28;20059;-50
2024/01/31 03:43:45;;;;;;;6.77;2.10;;;6.50;99.90;;;;;;5052134;28;20114;-51
2024/01/31 03:46:12;;;;;;;6.10;2.00;;;6.50;99.90;;;;;;5053131;28;20029;-54
2024/01/31 03:48:37;;;;;;;4.97;1.70;;;6.50;99.90;;;;;;5052143;28;20033;-54
2024/01/31 03:51:03;;;;;;;6.37;2.10;;;6.50;99.90;;;;;;5051993;28;20128;-54
2024/01/31 03:53:29;;;;;;;4.87;2.07;;;6.50;99.90;;;;;;5051972;28;20479;-52
2024/01/31 03:55:55;;;;;;;7.63;2.00;;;6.60;99.90;;;;;;5051945;28;20029;-53
2024/01/31 03:58:20;;;;;;;7.03;2.40;;;6.60;99.90;;;;;;5052072;28;20460;-54
2024/01/31 04:00:46;;;;;;;3.87;2.17;;;6.60;99.90;;;;;;5052189;28;20031;-52
2024/01/31 04:03:11;;;;;;;6.73;2.20;;;6.60;99.90;;;;;;5052106;28;20391;-54
2024/01/31 04:05:37;;;;;;;8.33;2.07;;;6.60;99.90;;;;;;5051881;28;20029;-54
2024/01/31 04:08:03;;;;;;;5.97;2.37;;;6.60;99.90;;;;;;5051894;28;20064;-54
2024/01/31 04:10:29;;;;;;;6.33;2.67;;;6.60;99.90;;;;;;5051660;28;20067;-55
2024/01/31 04:12:54;;;;;;;5.07;2.40;;;6.70;99.90;;;;;;5051728;28;20032;-54
2024/01/31 04:15:20;;;;;;;6.87;2.17;;;6.60;99.90;;;;;;5050601;28;20067;-53
2024/01/31 04:17:45;;;;;;;6.67;2.57;;;6.60;99.90;;;;;;5051705;28;20063;-55
2024/01/31 04:20:12;;;;;;;5.37;2.27;;;6.60;99.90;;;;;;5051774;28;20028;-55
2024/01/31 04:22:40;;;;;;;6.40;2.53;;;6.60;99.90;;;;;;5050457;28;20060;-53
2024/01/31 04:25:06;;;;;;;7.82;2.60;;;6.60;99.90;;;;;;5051669;28;20183;-55
2024/01/31 04:27:32;;;;;;;8.90;2.60;;;6.60;99.90;;;;;;5051654;28;20123;-54
2024/01/31 04:29:58;;;;;;;6.33;2.60;;;6.60;99.90;;;;;;5051655;28;20056;-54
2024/01/31 04:32:24;;;;;;;8.67;2.30;;;6.50;99.90;;;;;;5051698;28;20033;-54
2024/01/31 04:34:50;;;;;;;7.33;3.20;;;6.50;99.90;;;;;;5051679;28;20032;-55
2024/01/31 04:37:16;;;;;;;5.67;2.73;;;6.40;99.90;;;;;;5051586;28;20104;-55
2024/01/31 04:39:43;;;;;;;7.73;2.57;;;6.40;99.90;;;;;;5051641;28;20029;-55
2024/01/31 04:42:08;;;;;;;6.73;2.67;;;6.50;99.90;;;;;;5051533;28;20037;-53
2024/01/31 04:44:34;;;;;;;8.43;2.80;;;6.50;99.90;;;;;;5054520;28;20074;-51
2024/01/31 04:47:00;;;;;;;8.07;3.17;;;6.50;99.90;;;;;;5053962;28;20083;-54
2024/01/31 04:49:26;;;;;;;12.00;3.00;;;6.50;99.90;;;;;;5055438;28;20029;-55
2024/01/31 04:51:52;;;;;;;8.70;3.10;;;6.50;99.90;;;;;;5054031;28;20041;-55
2024/01/31 04:54:18;;;;;;;7.57;3.10;;;6.60;99.90;;;;;;5055310;28;20059;-54
2024/01/31 04:56:44;;;;;;;8.97;3.20;;;6.60;99.90;;;;;;5053848;28;20025;-55
2024/01/31 04:59:09;;;;;;;9.93;3.43;;;6.60;99.90;;;;;;5055332;28;20029;-54
2024/01/31 05:01:35;;;;;;;10.60;3.20;;;6.60;99.90;;;;;;5055429;28;20029;-54
2024/01/31 05:04:00;;;;;;;7.07;3.13;;;6.60;99.90;;;;;;5055140;28;20036;-54
2024/01/31 05:06:26;;;;;;;9.50;3.17;;;6.60;99.90;;;;;;5055240;28;20032;-54
2024/01/31 05:08:52;;;;;;;9.10;3.13;;;6.60;99.90;;;;;;5055087;28;20033;-55
2024/01/31 05:11:17;;;;;;;8.27;3.40;;;6.50;99.90;;;;;;5055294;28;20082;-55
2024/01/31 05:13:43;;;;;;;9.87;3.23;;;6.40;99.90;;;;;;5054982;28;20474;-53
2024/01/31 05:16:09;;;;;;;8.90;2.80;;;6.40;99.90;;;;;;5055034;28;20025;-54
2024/01/31 05:18:36;;;;;;;9.97;3.67;;;6.30;99.90;;;;;;5053658;28;20025;-55
2024/01/31 05:21:02;;;;;;;6.77;2.97;;;6.40;99.90;;;;;;5054714;28;20182;-50
2024/01/31 05:23:28;;;;;;;7.30;3.43;;;6.40;99.90;;;;;;5053541;28;20079;-51
2024/01/31 05:25:53;;;;;;;8.70;2.93;;;6.40;99.90;;;;;;5054854;28;20131;-53
2024/01/31 05:28:20;;;;;;;6.57;3.30;;;6.40;99.90;;;;;;5054685;28;20060;-53
2024/01/31 05:30:46;;;;;;;11.40;3.30;;;6.50;99.90;;;;;;5054770;28;20496;-51
2024/01/31 05:33:12;;;;;;;8.27;3.00;;;6.50;99.90;;;;;;5054728;28;20029;-53
2024/01/31 05:35:38;;;;;;;6.60;3.33;;;6.50;99.90;;;;;;5054747;28;20466;-54
2024/01/31 05:38:04;;;;;;;6.20;3.10;;;6.50;99.90;;;;;;5054404;28;20064;-52
2024/01/31 05:40:30;;;;;;;10.17;3.37;;;6.50;99.90;;;;;;5055119;28;20468;-54
2024/01/31 05:42:56;;;;;;;6.93;2.60;;;6.50;99.90;;;;;;5053209;28;20112;-50
2024/01/31 05:45:22;;;;;;;11.20;3.27;;;6.50;99.90;;;;;;5054521;28;20095;-53
2024/01/31 05:47:47;;;;;;;11.07;2.73;;;6.50;99.90;;;;;;5054393;28;20040;-53
2024/01/31 05:50:13;;;;;;;8.47;4.10;;;6.50;99.90;;;;;;5054427;28;20024;-53
2024/01/31 05:52:38;;;;;;;9.40;3.40;;;6.50;99.90;;;;;;5052963;28;20029;-55
2024/01/31 05:55:04;;;;;;;8.83;3.20;;;6.50;99.90;;;;;;5054137;28;20044;-54
2024/01/31 05:57:30;;;;;;;9.77;3.40;;;6.40;99.90;;;;;;5054380;28;20076;-52
2024/01/31 05:59:56;;;;;;;8.13;3.17;;;6.40;99.90;;;;;;5054987;28;20056;-54
2024/01/31 06:02:22;;;;;;;4.87;2.80;;;6.40;99.90;;;;;;5054346;28;20025;-54
2024/01/31 06:04:47;;;;;;;10.07;3.17;;;6.40;99.90;;;;;;5054206;28;20405;-53
2024/01/31 06:07:13;;;;;;;8.10;3.23;;;6.40;99.90;;;;;;5053941;28;20067;-53
2024/01/31 06:09:39;;;;;;;11.17;3.30;;;6.50;99.90;;;;;;5054066;28;20389;-54
2024/01/31 06:12:06;;;;;;;11.07;3.53;;;6.40;99.90;;;;;;5054007;28;20044;-53
2024/01/31 06:14:32;;;;;;;8.67;3.20;;;6.40;99.90;;;;;;5054020;28;20033;-54
2024/01/31 06:16:58;;;;;;;9.97;2.90;;;6.40;99.90;;;;;;5052433;28;20064;-55
2024/01/31 06:19:24;;;;;;;7.83;3.10;;;6.40;99.90;;;;;;5053947;28;20033;-55
2024/01/31 06:21:49;;;;;;;9.60;3.23;;;6.40;99.90;;;;;;5052345;28;20120;-53
2024/01/31 06:24:15;;;;;;;9.17;3.33;;;6.30;99.90;;;;;;5053693;28;20033;-54
2024/01/31 06:26:41;;;;;;;8.63;3.33;;;6.40;99.90;;;;;;5053585;28;20033;-54
2024/01/31 06:29:06;;;;;;;10.33;3.70;;;6.40;99.90;;;;;;5053717;28;20505;-55
2024/01/31 06:31:36;;;;;;;12.23;3.30;;;6.40;99.90;;;;;;5053590;28;20033;-53
2024/01/31 06:34:01;;;;;;;8.65;3.70;;;6.40;99.90;;;;;;5053620;28;20032;-54
2024/01/31 06:36:27;;;;;;;9.27;3.83;;;6.30;99.90;;;;;;5053338;28;20029;-56
2024/01/31 06:38:52;;;;;;;9.17;3.30;;;6.30;99.90;;;;;;5053492;28;20119;-54
2024/01/31 06:41:18;;;;;;;10.03;4.37;;;6.30;99.90;;;;;;5053647;28;20021;-51
2024/01/31 06:43:44;;;;;;;8.20;3.80;;;6.30;99.90;;;;;;5053361;28;20493;-51
2024/01/31 06:46:10;;;;;;;11.27;3.73;;;6.30;99.90;;;;;;5053423;28;20037;-55
2024/01/31 06:48:36;;;;;;;14.03;3.90;;;6.30;99.90;;;;;;5053239;28;20032;-54
2024/01/31 06:51:01;;;;;;;8.30;3.10;;;6.40;99.90;;;;;;5053072;28;20040;-55
2024/01/31 06:53:29;;;;;;;9.50;3.73;;;6.40;99.90;;;;;;5053090;28;20374;-54
2024/01/31 06:55:55;;;;;;;9.77;4.23;;;6.40;99.90;;;;;;5051909;28;20044;-53
2024/01/31 06:58:21;;;;;;;9.23;4.20;;;6.40;99.90;;;;;;5053109;28;20083;-56
2024/01/31 07:00:47;;;;;;;9.27;3.80;;;6.30;99.90;;;;;;5053036;28;20029;-53
2024/01/31 07:03:14;;;;;;;7.53;3.27;;;6.40;99.90;;;;;;5053051;28;20025;-53
2024/01/31 07:05:42;;;;;;;8.53;3.90;;;6.40;99.90;;;;;;5052314;28;20393;-55
2024/01/31 07:08:07;;;;;;;10.13;3.90;;;6.30;99.90;;;;;;5052914;28;20052;-55
2024/01/31 07:10:33;;;;;;;11.27;4.57;;;6.40;99.90;;;;;;5051531;28;20487;-54
2024/01/31 07:12:58;;;;;;;10.97;4.07;;;6.40;99.90;;;;;;5052697;28;20053;-54
2024/01/31 07:15:24;;;;;;;8.53;3.63;;;6.40;99.90;;;;;;5052836;28;20087;-50
2024/01/31 07:17:50;;;;;;;11.87;4.00;;;6.30;99.90;;;;;;5052925;28;20025;-54
2024/01/31 07:20:17;;;;;;;10.53;3.67;;;6.30;99.90;;;;;;5052791;28;20080;-54
2024/01/31 07:22:42;;;;;;;8.50;3.07;;;6.30;99.90;;;;;;5052761;28;20025;-53
2024/01/31 07:25:13;;;;;;;8.57;3.40;;;6.40;99.90;;;;;;5052827;28;20040;-50
2024/01/31 07:27:41;;;;;;;9.13;3.70;;;6.40;99.90;;;;;;5052749;28;20063;-50
2024/01/31 07:30:11;;;;;;;8.47;3.47;;;6.40;99.90;;;;;;5052820;28;20063;-51
2024/01/31 07:32:40;;;;;;;9.57;3.53;;;6.40;99.90;;;;;;5052742;28;20393;-51
2024/01/31 07:35:09;;;;;;;8.43;3.95;;;6.30;99.90;;;;;;5052684;28;20032;-51
2024/01/31 07:37:36;;;;;;;;;;;6.30;99.90;;;;;;5053259;28;20033;-53
2024/01/31 07:40:03;;;;;;;9.07;3.17;;;6.30;99.90;;;;;;5053081;28;19963;-49
2024/01/31 07:42:29;;;;;;;6.87;3.23;;;6.40;99.90;;;;;;5054624;28;20036;-55
2024/01/31 07:44:54;;;;;;;7.47;3.07;;;6.30;99.90;;;;;;5052506;28;20029;-54
2024/01/31 07:47:20;;;;;;;8.87;3.33;;;6.30;99.90;;;;;;5052616;28;20036;-54
2024/01/31 07:49:45;;;;;;;8.40;3.17;;;6.30;99.90;;;;;;5052560;28;20036;-55
2024/01/31 07:52:11;;;;;;;11.73;3.37;;;6.30;99.90;;;;;;5052275;28;20029;-54
2024/01/31 07:54:37;;;;;;;7.17;3.20;;;6.30;99.90;;;;;;5052377;28;20028;-54
2024/01/31 07:57:03;;;;;;;8.83;3.50;;;6.30;99.90;;;;;;5051843;28;20155;-53
2024/01/31 07:59:28;;;;;;;11.60;3.73;;;6.30;99.90;;;;;;5052325;28;20021;-50
2024/01/31 08:01:54;;;;;;;9.57;3.17;;;6.40;99.90;;;;;;5052391;28;20029;-51
2024/01/31 08:04:20;;;;;;;8.33;3.87;;;6.40;99.90;;;;;;5050951;28;20367;-54
2024/01/31 08:06:45;;;;;;;9.43;3.50;;;6.40;99.90;;;;;;5052238;28;20418;-51
2024/01/31 08:09:11;;;;;;;10.37;3.37;;;6.40;99.90;;;;;;5052231;28;20094;-54
2024/01/31 08:11:42;;;;;;;6.43;2.90;;;6.40;99.90;;;;;;5052277;28;20033;-53
2024/01/31 08:14:07;;;;;;;9.23;3.47;;;6.40;99.90;;;;;;5052190;28;20036;-52
2024/01/31 08:16:33;;;;;;;9.97;3.30;;;6.40;99.90;;;;;;5052043;28;20029;-55
2024/01/31 08:18:58;;;;;;;8.13;3.67;;;6.50;99.90;;;;;;5056067;28;20025;-52
2024/01/31 08:21:24;;;;;;;8.87;3.43;;;6.50;99.90;;;;;;5056437;28;20067;-52
2024/01/31 08:23:50;;;;;;;10.87;3.27;;;6.50;99.90;;;;;;5056350;28;20500;-52
2024/01/31 08:26:17;;;;;;;9.53;3.50;;;6.60;99.90;;;;;;5056391;28;20056;-54
2024/01/31 08:28:43;;;;;;;9.73;3.50;;;6.60;99.90;;;;;;5056658;28;20031;-52
2024/01/31 08:31:08;;;;;;;9.67;2.97;;;6.60;99.90;;;;;;5056344;28;20082;-52
2024/01/31 08:33:34;;;;;;;9.67;3.70;;;6.60;99.90;;;;;;5056668;28;20033;-51
2024/01/31 08:36:00;;;;;;;10.70;3.40;;;6.70;99.90;;;;;;5056363;28;20039;-51
2024/01/31 08:38:25;;;;;;;9.77;3.03;;;6.80;99.90;;;;;;5056687;28;20036;-54
2024/01/31 08:40:51;;;;;;;10.50;3.13;;;6.80;99.90;;;;;;5057156;28;20033;-52
2024/01/31 08:43:17;;;;;;;6.63;3.33;;;6.80;99.90;;;;;;5057071;28;20389;-52
2024/01/31 08:45:42;;;;;;;8.97;3.43;;;6.80;99.90;;;;;;5057433;28;20500;-52
2024/01/31 08:48:08;;;;;;;13.47;3.67;;;6.80;99.90;;;;;;5057216;28;20036;-50
2024/01/31 08:50:34;;;;;;;11.13;3.27;;;6.80;99.90;;;;;;5055774;28;20088;-50
2024/01/31 08:52:59;;;;;;;9.10;3.20;;;6.70;99.90;;;;;;5055393;28;20032;-54
2024/01/31 08:55:25;;;;;;;7.60;2.97;;;6.80;99.90;;;;;;5055586;28;20527;-53
2024/01/31 08:57:50;;;;;;;6.20;2.63;;;6.80;99.90;;;;;;5055303;28;20126;-54
2024/01/31 09:00:16;;;;;;;10.53;3.10;;;6.80;99.90;;;;;;5055341;28;20500;-50
2024/01/31 09:02:42;;;;;;;7.50;3.23;;;6.80;99.90;;;;;;5054180;28;20090;-54
2024/01/31 09:05:10;;;;;;;7.87;3.47;;;6.80;99.90;;;;;;5055485;28;20029;-54
2024/01/31 09:07:36;;;;;;;9.53;3.70;;;6.80;99.90;;;;;;5055143;28;20040;-50
2024/01/31 09:10:03;;;;;;;10.57;3.27;;;6.80;99.90;;;;;;5055213;28;20025;-53
2024/01/31 09:12:29;;;;;;;7.20;3.30;;;6.80;99.90;;;;;;5055237;28;20037;-54
2024/01/31 09:14:55;;;;;;;10.10;3.33;;;6.80;99.90;;;;;;5055154;28;20056;-54
2024/01/31 09:17:21;;;;;;;7.33;2.90;;;6.80;99.90;;;;;;5054967;28;20024;-52
2024/01/31 09:19:47;;;;;;;10.47;3.83;;;6.90;99.90;;;;;;5055062;28;20701;-54
2024/01/31 09:22:12;;;;;;;7.20;3.83;;;6.90;99.90;;;;;;5055155;28;20033;-50
2024/01/31 09:24:38;;;;;;;7.03;2.83;;;6.90;99.90;;;;;;5055123;28;20032;-53
2024/01/31 09:27:04;;;;;;;7.57;3.57;;;7.00;99.90;;;;;;5054910;28;20382;-54
2024/01/31 09:29:30;;;;;;;6.50;2.90;;;7.00;99.90;;;;;;5054132;28;20478;-54
2024/01/31 09:31:55;;;;;;;8.30;3.83;;;7.10;99.90;;;;;;5054909;28;20043;-54
2024/01/31 09:34:21;;;;;;;7.03;2.90;;;7.10;99.90;;;;;;5054882;28;20036;-53
2024/01/31 09:36:48;;;;;;;8.17;2.97;;;7.20;99.90;;;;;;5053002;28;20147;-54
2024/01/31 09:39:14;;;;;;;8.83;2.70;;;7.20;99.90;;;;;;5054764;28;20033;-55
2024/01/31 09:41:40;;;;;;;6.23;3.10;;;7.20;99.90;;;;;;5054801;28;20025;-53
2024/01/31 09:44:06;;;;;;;6.73;2.70;;;7.10;99.90;;;;;;5054740;28;20029;-52
2024/01/31 09:46:34;;;;;;;6.90;3.03;;;7.00;99.90;;;;;;5054566;28;20124;-54
2024/01/31 09:49:00;;;;;;;11.10;3.37;;;7.00;99.90;;;;;;5054719;28;20056;-53
2024/01/31 09:51:26;;;;;;;10.50;3.63;;;7.00;99.90;;;;;;5065186;28;20470;-54
2024/01/31 09:53:56;;;;;;;8.70;3.33;;;7.00;99.90;;;;;;5065592;28;20044;-54
2024/01/31 09:56:22;;;;;;;9.23;3.57;;;7.00;99.90;;;;;;5055203;28;20037;-49
2024/01/31 09:58:48;;;;;;;6.10;2.87;;;7.00;99.90;;;;;;5054439;28;20074;-54
2024/01/31 10:01:16;;;;;;;6.40;2.80;;;6.90;99.90;;;;;;5054391;28;20028;-54
2024/01/31 10:03:41;;;;;;;7.33;2.80;;;6.90;99.90;;;;;;5054446;28;20029;-55
2024/01/31 10:06:07;;;;;;;8.00;2.97;;;6.90;99.90;;;;;;5054288;28;20029;-53
2024/01/31 10:08:33;;;;;;;11.60;3.10;;;6.90;99.90;;;;;;5054412;28;20033;-52
2024/01/31 10:10:59;;;;;;;9.33;3.13;;;6.90;99.90;;;;;;5052926;28;20033;-54
2024/01/31 10:13:25;;;;;;;9.07;3.03;;;6.90;99.90;;;;;;5054340;28;20033;-54
2024/01/31 10:15:51;;;;;;;8.20;2.77;;;6.90;99.90;;;;;;5054374;28;20032;-53
2024/01/31 10:18:18;;;;;;;7.90;2.80;;;6.90;99.90;;;;;;5054180;28;20025;-54
2024/01/31 10:20:50;;;;;;;8.20;3.10;;;6.90;99.90;;;;;;5052671;28;20025;-53
2024/01/31 10:23:15;;;;;;;10.03;4.00;;;7.00;99.90;;;;;;5052608;28;20397;-53
2024/01/31 10:25:41;;;;;;;9.43;3.30;;;7.00;99.90;;;;;;5053790;28;20037;-54
2024/01/31 10:28:08;;;;;;;7.30;2.97;;;7.00;99.90;;;;;;5053925;28;20045;-54
2024/01/31 10:30:45;;;;;;;7.33;2.80;;;7.00;99.90;;;;;;5054084;28;20417;-55
2024/01/31 10:33:12;;;;;;;7.07;2.70;;;7.00;99.90;;;;;;5054025;28;20436;-55
2024/01/31 10:35:41;;;;;;;8.60;2.97;;;7.10;99.90;;;;;;5053926;28;20094;-53
2024/01/31 10:38:07;;;;;;;8.73;3.45;;;7.20;99.90;;;;;;5053636;28;20029;-53
2024/01/31 10:40:37;;;;;;;7.90;3.40;;;7.30;99.90;;;;;;5052780;28;20522;-52
2024/01/31 10:43:03;;;;;;;9.03;3.37;;;7.40;99.90;;;;;;5053415;28;20481;-54
2024/01/31 10:45:33;;;;;;;8.77;3.53;;;7.40;99.90;;;;;;5053604;28;20135;-53
2024/01/31 10:47:59;;;;;;;10.80;4.33;;;7.50;99.90;;;;;;5053411;28;20075;-54
2024/01/31 10:50:24;;;;;;;11.03;3.80;;;7.50;99.90;;;;;;5053515;28;20056;-54
2024/01/31 10:52:53;;;;;;;36.07;15.63;;;7.40;99.90;;;;;;5053279;28;20036;-55
2024/01/31 10:55:21;;;;;;;14.97;6.03;;;7.50;99.90;;;;;;5053544;28;20070;-55
2024/01/31 10:57:48;;;;;;;10.03;4.30;;;7.50;99.90;;;;;;5053346;28;20071;-51
2024/01/31 11:00:25;;;;;;;9.83;4.40;;;7.50;99.90;;;;;;5053163;28;20035;-55
2024/01/31 11:02:51;;;;;;;12.40;4.03;;;7.60;99.90;;;;;;5053215;28;20036;-54
2024/01/31 11:05:17;;;;;;;11.03;4.30;;;7.60;99.90;;;;;;5051940;28;20033;-53
2024/01/31 11:07:46;;;;;;;12.53;4.13;;;7.60;99.90;;;;;;5053014;28;20108;-53
2024/01/31 11:10:20;;;;;;;11.65;4.53;;;7.50;99.90;;;;;;5051790;28;20436;-52
2024/01/31 11:13:05;;;;;;;17.17;4.97;;;7.50;99.90;;;;;;5052947;28;20033;-54
2024/01/31 11:15:32;;;;;;;12.83;5.10;;;7.60;99.90;;;;;;5052951;28;20056;-54
2024/01/31 11:18:11;;;;;;;15.80;5.70;;;7.50;99.90;;;;;;5052842;28;20509;-53
2024/01/31 11:20:49;;;;;;;12.38;4.53;;;7.60;99.90;;;;;;5052958;28;20033;-54
2024/01/31 11:23:20;;;;;;;13.87;5.40;;;7.60;99.90;;;;;;5052768;28;20151;-53
2024/01/31 11:25:46;;;;;;;16.93;5.90;;;7.60;99.90;;;;;;5053008;28;20037;-53
2024/01/31 11:28:13;;;;;;;14.93;5.10;;;7.60;99.90;;;;;;5052685;28;20500;-53
2024/01/31 11:30:39;;;;;;;14.53;5.93;;;7.60;99.90;;;;;;5052573;28;20033;-53
2024/01/31 11:33:05;;;;;;;17.37;5.33;;;7.70;99.90;;;;;;5052561;28;20481;-53
2024/01/31 11:35:32;;;;;;;14.60;6.13;;;7.70;99.90;;;;;;5052881;28;20492;-54
2024/01/31 11:37:59;;;;;;;14.63;5.43;;;7.70;99.90;;;;;;5053168;28;20140;-53
2024/01/31 11:40:24;;;;;;;15.43;6.13;;;7.90;99.90;;;;;;5052669;28;20462;-55
2024/01/31 11:42:54;;;;;;;16.90;5.57;;;7.80;99.90;;;;;;5052471;28;20086;-54
2024/01/31 11:45:26;;;;;;;12.25;5.38;;;7.80;99.90;;;;;;5052496;28;20470;-53
2024/01/31 11:47:56;;;;;;;15.07;5.77;;;7.90;99.90;;;;;;5052427;28;20028;-55
2024/01/31 11:50:22;;;;;;;19.37;5.97;;;7.90;99.90;;;;;;5051052;28;20039;-54
2024/01/31 11:52:49;;;;;;;17.03;6.70;;;7.90;99.90;;;;;;5052132;28;20044;-54
2024/01/31 11:55:28;;;;;;;17.30;5.87;;;8.10;99.90;;;;;;5052381;28;20422;-55
2024/01/31 11:57:53;;;;;;;17.77;6.55;;;8.10;99.90;;;;;;5052353;28;20021;-55
2024/01/31 12:00:20;;;;;;;14.83;6.30;;;8.00;99.90;;;;;;5051213;28;20389;-50
2024/01/31 12:02:47;;;;;;;17.27;6.27;;;8.10;99.90;;;;;;5052409;28;20416;-50
2024/01/31 12:05:13;;;;;;;16.60;6.53;;;8.10;99.90;;;;;;5052508;28;20463;-54
2024/01/31 12:07:39;;;;;;;20.53;7.10;;;8.10;99.90;;;;;;5051943;28;20044;-53
2024/01/31 12:10:08;;;;;;;17.00;6.83;;;8.20;99.90;;;;;;5052145;28;20037;-53
2024/01/31 12:12:41;;;;;;;;;;;8.20;99.90;;;;;;5052518;28;20021;-54
2024/01/31 12:15:09;;;;;;;18.30;6.07;;;8.20;99.90;;;;;;5052446;28;19909;-53
2024/01/31 12:17:35;;;;;;;20.80;7.10;;;8.10;99.90;;;;;;5052115;28;20060;-54
2024/01/31 12:20:05;;;;;;;16.80;6.63;;;8.20;99.90;;;;;;5051931;28;20443;-54
2024/01/31 12:22:34;;;;;;;17.33;6.57;;;8.20;99.90;;;;;;5052127;28;20091;-54
2024/01/31 12:25:01;;;;;;;;;;;8.20;99.90;;;;;;5052656;28;20073;-53
2024/01/31 12:27:27;;;;;;;16.93;6.10;;;8.30;99.90;;;;;;5052156;28;19908;-54
2024/01/31 12:29:53;;;;;;;21.20;7.50;;;8.20;99.90;;;;;;5051784;28;20029;-54
2024/01/31 12:32:18;;;;;;;13.83;6.43;;;8.20;99.90;;;;;;5051978;28;20386;-53
2024/01/31 12:34:44;;;;;;;16.03;6.63;;;8.20;99.90;;;;;;5051913;28;20029;-54
2024/01/31 12:37:10;;;;;;;16.67;6.47;;;8.20;99.90;;;;;;5051887;28;20021;-55
2024/01/31 12:39:35;;;;;;;16.77;6.87;;;8.20;99.90;;;;;;5051789;28;20036;-54
2024/01/31 12:42:03;;;;;;;19.47;7.13;;;8.20;99.90;;;;;;5051938;28;20031;-53
2024/01/31 12:44:29;;;;;;;17.97;7.40;;;8.20;99.90;;;;;;5052061;28;20018;-54
2024/01/31 12:46:55;;;;;;;18.83;8.23;;;8.30;99.90;;;;;;5051623;28;20528;-52
2024/01/31 12:49:21;;;;;;;20.30;7.80;;;8.20;99.90;;;;;;5051403;28;20091;-53